sensor_id;sensor_type;location;lat;lon;timestamp;temperature;humidity
34640;DHT22;22600;48.186;11.526;2023-02-21T00:02:27;22.70;54.30
34640;DHT22;22600;48.186;11.526;2023-02-21T00:05:11;22.60;54.70
34640;DHT22;22600;48.186;11.526;2023-02-21T00:07:55;22.60;54.70
34640;DHT22;22600;48.186;11.526;2023-02-21T00:10:39;22.60;54.30
34640;DHT22;22600;48.186;11.526;2023-02-21T00:13:23;22.60;54.80
34640;DHT22;22600;48.186;11.526;2023-02-21T00:16:07;22.60;54.80
34640;DHT22;22600;48.186;11.526;2023-02-21T00:18:51;22.60;54.80
34640;DHT22;22600;48.186;11.526;2023-02-21T00:21:35;22.60;54.80
34640;DHT22;22600;48.186;11.526;2023-02-21T00:24:20;22.60;54.90
34640;DHT22;22600;48.186;11.526;2023-02-21T00:27:04;22.60;54.80
34640;DHT22;22600;48.186;11.526;2023-02-21T00:29:50;22.50;54.80
34640;DHT22;22600;48.186;11.526;2023-02-21T00:32:35;22.60;54.40
34640;DHT22;22600;48.186;11.526;2023-02-21T00:35:19;24.90;56.00
34640;DHT22;22600;48.186;11.526;2023-02-21T00:38:03;22.60;54.40
34640;DHT22;22600;48.186;11.526;2023-02-21T00:40:47;22.60;54.90
34640;DHT22;22600;48.186;11.526;2023-02-21T00:43:33;22.60;55.00
34640;DHT22;22600;48.186;11.526;2023-02-21T00:46:18;22.60;55.00
34640;DHT22;22600;48.186;11.526;2023-02-21T00:49:02;22.60;54.90
34640;DHT22;22600;48.186;11.526;2023-02-21T00:51:47;22.50;54.90
34640;DHT22;22600;48.186;11.526;2023-02-21T00:54:31;22.60;54.50
34640;DHT22;22600;48.186;11.526;2023-02-21T00:57:15;22.70;55.10
34640;DHT22;22600;48.186;11.526;2023-02-21T00:59:59;21.20;53.90
34640;DHT22;22600;48.186;11.526;2023-02-21T01:02:43;22.60;55.00
34640;DHT22;22600;48.186;11.526;2023-02-21T01:05:27;22.60;55.00
34640;DHT22;22600;48.186;11.526;2023-02-21T01:08:12;22.70;55.10
34640;DHT22;22600;48.186;11.526;2023-02-21T01:10:56;22.60;54.60
34640;DHT22;22600;48.186;11.526;2023-02-21T01:13:41;22.60;55.10
34640;DHT22;22600;48.186;11.526;2023-02-21T01:16:28;22.60;54.60
34640;DHT22;22600;48.186;11.526;2023-02-21T01:19:13;22.60;55.10
34640;DHT22;22600;48.186;11.526;2023-02-21T01:21:57;22.60;55.10
34640;DHT22;22600;48.186;11.526;2023-02-21T01:24:41;22.60;55.10
34640;DHT22;22600;48.186;11.526;2023-02-21T01:27:25;22.60;55.10
34640;DHT22;22600;48.186;11.526;2023-02-21T01:30:09;22.50;55.00
34640;DHT22;22600;48.186;11.526;2023-02-21T01:32:54;22.60;54.70
34640;DHT22;22600;48.186;11.526;2023-02-21T01:35:38;25.60;56.70
34640;DHT22;22600;48.186;11.526;2023-02-21T01:38:22;22.60;55.20
34640;DHT22;22600;48.186;11.526;2023-02-21T01:41:06;22.60;54.70
34640;DHT22;22600;48.186;11.526;2023-02-21T01:47:23;22.60;55.80
34640;DHT22;22600;48.186;11.526;2023-02-21T01:50:29;22.60;54.70
34640;DHT22;22600;48.186;11.526;2023-02-21T01:53:18;22.60;55.30
34640;DHT22;22600;48.186;11.526;2023-02-21T01:56:03;22.60;55.20
34640;DHT22;22600;48.186;11.526;2023-02-21T01:58:50;22.60;55.20
34640;DHT22;22600;48.186;11.526;2023-02-21T02:04:31;22.60;55.30
34640;DHT22;22600;48.186;11.526;2023-02-21T02:07:16;22.60;54.80
34640;DHT22;22600;48.186;11.526;2023-02-21T02:10:00;22.60;54.80
34640;DHT22;22600;48.186;11.526;2023-02-21T02:15:22;22.60;55.30
34640;DHT22;22600;48.186;11.526;2023-02-21T02:26:26;22.60;54.90
34640;DHT22;22600;48.186;11.526;2023-02-21T02:31:37;22.60;54.90
34640;DHT22;22600;48.186;11.526;2023-02-21T02:37:28;22.60;55.40
34640;DHT22;22600;48.186;11.526;2023-02-21T02:45:36;22.60;55.40
34640;DHT22;22600;48.186;11.526;2023-02-21T02:48:15;22.60;55.40
34640;DHT22;22600;48.186;11.526;2023-02-21T02:50:47;22.60;54.90
34640;DHT22;22600;48.186;11.526;2023-02-21T02:53:18;22.60;55.40
34640;DHT22;22600;48.186;11.526;2023-02-21T02:58:16;22.60;55.00
34640;DHT22;22600;48.186;11.526;2023-02-21T03:00:47;22.60;55.40
34640;DHT22;22600;48.186;11.526;2023-02-21T03:06:25;22.60;55.00
34640;DHT22;22600;48.186;11.526;2023-02-21T03:09:06;22.60;55.40
34640;DHT22;22600;48.186;11.526;2023-02-21T03:11:33;22.60;55.40
34640;DHT22;22600;48.186;11.526;2023-02-21T03:14:13;22.60;55.40
34640;DHT22;22600;48.186;11.526;2023-02-21T03:16:47;24.50;56.30
34640;DHT22;22600;48.186;11.526;2023-02-21T03:19:24;22.60;55.00
34640;DHT22;22600;48.186;11.526;2023-02-21T03:21:58;22.50;55.40
34640;DHT22;22600;48.186;11.526;2023-02-21T03:24:25;22.60;55.50
34640;DHT22;22600;48.186;11.526;2023-02-21T03:26:56;22.60;55.40
34640;DHT22;22600;48.186;11.526;2023-02-21T03:29:24;22.60;55.50
34640;DHT22;22600;48.186;11.526;2023-02-21T03:31:55;22.60;55.00
34640;DHT22;22600;48.186;11.526;2023-02-21T03:34:23;22.60;55.50
34640;DHT22;22600;48.186;11.526;2023-02-21T03:36:49;22.60;55.50
34640;DHT22;22600;48.186;11.526;2023-02-21T03:39:14;22.60;55.10
34640;DHT22;22600;48.186;11.526;2023-02-21T03:41:40;22.60;55.50
34640;DHT22;22600;48.186;11.526;2023-02-21T03:44:06;22.60;55.50
34640;DHT22;22600;48.186;11.526;2023-02-21T03:46:31;22.60;55.50
34640;DHT22;22600;48.186;11.526;2023-02-21T03:48:57;22.60;55.50
34640;DHT22;22600;48.186;11.526;2023-02-21T03:51:22;22.60;55.50
34640;DHT22;22600;48.186;11.526;2023-02-21T03:53:48;22.60;55.60
34640;DHT22;22600;48.186;11.526;2023-02-21T03:56:13;22.60;55.00
34640;DHT22;22600;48.186;11.526;2023-02-21T03:58:39;22.60;55.50
34640;DHT22;22600;48.186;11.526;2023-02-21T04:01:05;22.60;55.50
34640;DHT22;22600;48.186;11.526;2023-02-21T04:03:30;22.50;55.50
34640;DHT22;22600;48.186;11.526;2023-02-21T04:05:56;22.50;55.50
34640;DHT22;22600;48.186;11.526;2023-02-21T04:08:21;22.50;55.50
34640;DHT22;22600;48.186;11.526;2023-02-21T04:10:47;22.50;55.10
34640;DHT22;22600;48.186;11.526;2023-02-21T04:13:12;22.60;55.60
34640;DHT22;22600;48.186;11.526;2023-02-21T04:15:38;22.60;55.60
34640;DHT22;22600;48.186;11.526;2023-02-21T04:18:04;22.60;55.20
34640;DHT22;22600;48.186;11.526;2023-02-21T04:20:29;22.60;55.60
34640;DHT22;22600;48.186;11.526;2023-02-21T04:22:55;22.50;55.10
34640;DHT22;22600;48.186;11.526;2023-02-21T04:25:20;22.60;55.60
34640;DHT22;22600;48.186;11.526;2023-02-21T04:27:46;22.60;55.70
34640;DHT22;22600;48.186;11.526;2023-02-21T04:30:11;22.60;55.10
34640;DHT22;22600;48.186;11.526;2023-02-21T04:32:37;22.60;55.10
34640;DHT22;22600;48.186;11.526;2023-02-21T04:35:03;22.50;55.60
34640;DHT22;22600;48.186;11.526;2023-02-21T04:37:28;22.60;55.60
34640;DHT22;22600;48.186;11.526;2023-02-21T04:39:54;22.60;55.10
34640;DHT22;22600;48.186;11.526;2023-02-21T04:42:19;22.60;55.20
34640;DHT22;22600;48.186;11.526;2023-02-21T04:44:45;22.50;55.20
34640;DHT22;22600;48.186;11.526;2023-02-21T04:47:10;22.50;55.10
34640;DHT22;22600;48.186;11.526;2023-02-21T04:49:36;22.60;55.70
34640;DHT22;22600;48.186;11.526;2023-02-21T04:52:02;22.60;55.70
34640;DHT22;22600;48.186;11.526;2023-02-21T04:54:27;22.60;55.70
34640;DHT22;22600;48.186;11.526;2023-02-21T04:56:53;22.60;55.20
34640;DHT22;22600;48.186;11.526;2023-02-21T04:59:18;22.50;55.70
34640;DHT22;22600;48.186;11.526;2023-02-21T05:01:44;22.50;55.70
34640;DHT22;22600;48.186;11.526;2023-02-21T05:04:09;22.50;55.20
34640;DHT22;22600;48.186;11.526;2023-02-21T05:06:35;22.60;55.70
34640;DHT22;22600;48.186;11.526;2023-02-21T05:09:00;22.50;55.70
34640;DHT22;22600;48.186;11.526;2023-02-21T05:11:26;22.50;55.20
34640;DHT22;22600;48.186;11.526;2023-02-21T05:13:52;22.50;55.70
34640;DHT22;22600;48.186;11.526;2023-02-21T05:16:18;22.60;55.30
34640;DHT22;22600;48.186;11.526;2023-02-21T05:18:46;22.50;55.20
34640;DHT22;22600;48.186;11.526;2023-02-21T05:21:13;22.50;55.70
34640;DHT22;22600;48.186;11.526;2023-02-21T05:23:39;22.50;55.20
34640;DHT22;22600;48.186;11.526;2023-02-21T05:26:11;22.50;55.70
34640;DHT22;22600;48.186;11.526;2023-02-21T05:28:38;22.50;55.70
34640;DHT22;22600;48.186;11.526;2023-02-21T05:31:05;22.50;55.70
34640;DHT22;22600;48.186;11.526;2023-02-21T05:33:31;22.60;55.80
34640;DHT22;22600;48.186;11.526;2023-02-21T05:35:57;22.50;55.30
34640;DHT22;22600;48.186;11.526;2023-02-21T05:38:24;22.50;55.30
34640;DHT22;22600;48.186;11.526;2023-02-21T05:40:50;22.60;55.40
34640;DHT22;22600;48.186;11.526;2023-02-21T05:43:15;22.50;55.30
34640;DHT22;22600;48.186;11.526;2023-02-21T05:45:41;22.50;55.80
34640;DHT22;22600;48.186;11.526;2023-02-21T05:48:07;22.50;55.80
34640;DHT22;22600;48.186;11.526;2023-02-21T05:50:32;22.60;55.80
34640;DHT22;22600;48.186;11.526;2023-02-21T05:52:58;22.60;55.50
34640;DHT22;22600;48.186;11.526;2023-02-21T05:55:24;22.50;55.90
34640;DHT22;22600;48.186;11.526;2023-02-21T05:57:50;22.60;55.40
34640;DHT22;22600;48.186;11.526;2023-02-21T06:00:25;22.50;55.40
34640;DHT22;22600;48.186;11.526;2023-02-21T06:02:53;22.50;55.40
34640;DHT22;22600;48.186;11.526;2023-02-21T06:05:19;22.50;55.80
34640;DHT22;22600;48.186;11.526;2023-02-21T06:07:46;23.30;55.80
34640;DHT22;22600;48.186;11.526;2023-02-21T06:10:12;22.50;55.90
34640;DHT22;22600;48.186;11.526;2023-02-21T06:12:38;22.50;55.40
34640;DHT22;22600;48.186;11.526;2023-02-21T06:15:04;22.50;55.40
34640;DHT22;22600;48.186;11.526;2023-02-21T06:17:35;22.50;55.40
34640;DHT22;22600;48.186;11.526;2023-02-21T06:20:02;22.60;55.50
34640;DHT22;22600;48.186;11.526;2023-02-21T06:22:28;22.50;55.40
34640;DHT22;22600;48.186;11.526;2023-02-21T06:24:53;22.60;55.90
34640;DHT22;22600;48.186;11.526;2023-02-21T06:27:19;22.60;55.90
34640;DHT22;22600;48.186;11.526;2023-02-21T06:29:44;22.50;54.80
34640;DHT22;22600;48.186;11.526;2023-02-21T06:32:10;22.50;53.90
34640;DHT22;22600;48.186;11.526;2023-02-21T06:34:35;22.50;52.90
34640;DHT22;22600;48.186;11.526;2023-02-21T06:37:01;22.50;53.50
34640;DHT22;22600;48.186;11.526;2023-02-21T06:39:26;22.50;52.30
34640;DHT22;22600;48.186;11.526;2023-02-21T06:41:52;22.50;52.80
34640;DHT22;22600;48.186;11.526;2023-02-21T06:44:18;22.50;52.70
34640;DHT22;22600;48.186;11.526;2023-02-21T06:46:43;22.40;52.30
34640;DHT22;22600;48.186;11.526;2023-02-21T06:49:09;22.40;52.80
34640;DHT22;22600;48.186;11.526;2023-02-21T06:51:37;22.40;53.40
34640;DHT22;22600;48.186;11.526;2023-02-21T06:54:03;22.50;53.00
34640;DHT22;22600;48.186;11.526;2023-02-21T06:56:29;22.50;53.10
34640;DHT22;22600;48.186;11.526;2023-02-21T06:58:55;22.40;52.70
34640;DHT22;22600;48.186;11.526;2023-02-21T07:01:21;22.40;53.10
34640;DHT22;22600;48.186;11.526;2023-02-21T07:03:48;22.50;53.20
34640;DHT22;22600;48.186;11.526;2023-02-21T07:06:14;22.50;52.90
34640;DHT22;22600;48.186;11.526;2023-02-21T07:08:40;22.40;53.40
34640;DHT22;22600;48.186;11.526;2023-02-21T07:11:06;22.40;53.40
34640;DHT22;22600;48.186;11.526;2023-02-21T07:13:32;22.40;52.90
34640;DHT22;22600;48.186;11.526;2023-02-21T07:15:59;22.50;53.10
34640;DHT22;22600;48.186;11.526;2023-02-21T07:18:24;22.50;53.10
34640;DHT22;22600;48.186;11.526;2023-02-21T07:20:50;22.50;53.10
34640;DHT22;22600;48.186;11.526;2023-02-21T07:23:15;22.50;53.10
34640;DHT22;22600;48.186;11.526;2023-02-21T07:25:41;22.50;53.60
34640;DHT22;22600;48.186;11.526;2023-02-21T07:28:07;22.50;53.60
34640;DHT22;22600;48.186;11.526;2023-02-21T07:30:32;22.50;53.60
34640;DHT22;22600;48.186;11.526;2023-02-21T07:32:58;22.50;53.10
34640;DHT22;22600;48.186;11.526;2023-02-21T07:35:24;22.50;53.60
34640;DHT22;22600;48.186;11.526;2023-02-21T07:37:49;22.50;53.60
34640;DHT22;22600;48.186;11.526;2023-02-21T07:40:15;22.60;53.70
34640;DHT22;22600;48.186;11.526;2023-02-21T07:42:42;22.60;53.70
34640;DHT22;22600;48.186;11.526;2023-02-21T07:45:13;22.60;53.70
34640;DHT22;22600;48.186;11.526;2023-02-21T07:47:38;22.70;53.80
34640;DHT22;22600;48.186;11.526;2023-02-21T07:50:05;22.60;53.80
34640;DHT22;22600;48.186;11.526;2023-02-21T07:52:31;22.60;53.80
34640;DHT22;22600;48.186;11.526;2023-02-21T07:54:56;22.60;53.80
34640;DHT22;22600;48.186;11.526;2023-02-21T07:57:22;22.60;53.80
34640;DHT22;22600;48.186;11.526;2023-02-21T07:59:47;22.60;53.90
34640;DHT22;22600;48.186;11.526;2023-02-21T08:02:14;22.70;53.50
34640;DHT22;22600;48.186;11.526;2023-02-21T08:04:40;22.70;54.50
34640;DHT22;22600;48.186;11.526;2023-02-21T08:07:06;22.70;53.90
34640;DHT22;22600;48.186;11.526;2023-02-21T08:09:32;22.70;53.40
34640;DHT22;22600;48.186;11.526;2023-02-21T08:11:58;22.70;53.90
34640;DHT22;22600;48.186;11.526;2023-02-21T08:14:23;22.70;53.40
34640;DHT22;22600;48.186;11.526;2023-02-21T08:16:49;22.70;53.40
34640;DHT22;22600;48.186;11.526;2023-02-21T08:19:14;22.70;53.90
34640;DHT22;22600;48.186;11.526;2023-02-21T08:21:44;22.70;53.40
34640;DHT22;22600;48.186;11.526;2023-02-21T08:24:10;22.80;53.90
34640;DHT22;22600;48.186;11.526;2023-02-21T08:26:36;22.70;53.80
34640;DHT22;22600;48.186;11.526;2023-02-21T08:29:02;22.80;53.90
34640;DHT22;22600;48.186;11.526;2023-02-21T08:31:28;22.80;53.40
34640;DHT22;22600;48.186;11.526;2023-02-21T08:33:53;22.80;53.90
34640;DHT22;22600;48.186;11.526;2023-02-21T08:36:19;22.80;53.40
34640;DHT22;22600;48.186;11.526;2023-02-21T08:38:45;22.80;53.90
34640;DHT22;22600;48.186;11.526;2023-02-21T08:41:10;22.80;53.40
34640;DHT22;22600;48.186;11.526;2023-02-21T08:43:36;22.80;53.40
34640;DHT22;22600;48.186;11.526;2023-02-21T08:46:01;22.90;53.40
34640;DHT22;22600;48.186;11.526;2023-02-21T08:48:27;22.90;53.40
34640;DHT22;22600;48.186;11.526;2023-02-21T08:50:53;22.90;53.30
34640;DHT22;22600;48.186;11.526;2023-02-21T08:53:19;22.90;53.30
34640;DHT22;22600;48.186;11.526;2023-02-21T08:55:44;22.90;53.30
34640;DHT22;22600;48.186;11.526;2023-02-21T08:58:11;22.90;53.80
34640;DHT22;22600;48.186;11.526;2023-02-21T09:00:37;25.20;54.90
34640;DHT22;22600;48.186;11.526;2023-02-21T09:03:03;22.90;53.80
34640;DHT22;22600;48.186;11.526;2023-02-21T09:05:30;22.90;53.80
34640;DHT22;22600;48.186;11.526;2023-02-21T09:07:58;23.00;53.70
34640;DHT22;22600;48.186;11.526;2023-02-21T09:10:30;23.00;53.30
34640;DHT22;22600;48.186;11.526;2023-02-21T09:12:58;23.00;53.70
34640;DHT22;22600;48.186;11.526;2023-02-21T09:15:24;23.00;53.70
34640;DHT22;22600;48.186;11.526;2023-02-21T09:17:50;23.00;53.70
34640;DHT22;22600;48.186;11.526;2023-02-21T09:20:18;23.00;53.20
34640;DHT22;22600;48.186;11.526;2023-02-21T09:22:44;23.00;53.70
34640;DHT22;22600;48.186;11.526;2023-02-21T09:25:10;23.00;53.70
34640;DHT22;22600;48.186;11.526;2023-02-21T09:27:40;23.00;53.70
34640;DHT22;22600;48.186;11.526;2023-02-21T09:30:09;23.00;53.70
34640;DHT22;22600;48.186;11.526;2023-02-21T09:32:35;23.10;53.80
34640;DHT22;22600;48.186;11.526;2023-02-21T09:35:01;23.10;53.80
34640;DHT22;22600;48.186;11.526;2023-02-21T09:37:27;23.10;53.80
34640;DHT22;22600;48.186;11.526;2023-02-21T09:39:53;23.10;53.30
34640;DHT22;22600;48.186;11.526;2023-02-21T09:42:29;23.10;53.30
34640;DHT22;22600;48.186;11.526;2023-02-21T09:44:55;23.10;53.80
34640;DHT22;22600;48.186;11.526;2023-02-21T09:47:27;23.10;53.30
34640;DHT22;22600;48.186;11.526;2023-02-21T09:49:59;23.10;53.40
34640;DHT22;22600;48.186;11.526;2023-02-21T09:52:36;23.10;53.40
34640;DHT22;22600;48.186;11.526;2023-02-21T09:55:07;23.10;53.40
34640;DHT22;22600;48.186;11.526;2023-02-21T09:57:36;23.10;54.00
34640;DHT22;22600;48.186;11.526;2023-02-21T10:00:09;23.10;54.00
34640;DHT22;22600;48.186;11.526;2023-02-21T10:02:53;23.10;54.00
34640;DHT22;22600;48.186;11.526;2023-02-21T10:08:17;23.10;54.00
34640;DHT22;22600;48.186;11.526;2023-02-21T10:10:46;23.10;53.60
34640;DHT22;22600;48.186;11.526;2023-02-21T10:19:03;23.10;53.70
34640;DHT22;22600;48.186;11.526;2023-02-21T10:21:34;23.10;53.70
34640;DHT22;22600;48.186;11.526;2023-02-21T10:24:04;23.20;54.20
34640;DHT22;22600;48.186;11.526;2023-02-21T10:26:37;23.10;54.20
34640;DHT22;22600;48.186;11.526;2023-02-21T10:31:45;23.10;54.30
34640;DHT22;22600;48.186;11.526;2023-02-21T10:34:32;23.10;54.30
34640;DHT22;22600;48.186;11.526;2023-02-21T10:48:34;23.10;54.40
34640;DHT22;22600;48.186;11.526;2023-02-21T10:51:09;23.10;54.40
34640;DHT22;22600;48.186;11.526;2023-02-21T10:53:38;23.10;54.00
34640;DHT22;22600;48.186;11.526;2023-02-21T11:03:56;23.10;54.40
34640;DHT22;22600;48.186;11.526;2023-02-21T11:06:31;23.10;54.50
34640;DHT22;22600;48.186;11.526;2023-02-21T11:08:58;23.10;54.50
34640;DHT22;22600;48.186;11.526;2023-02-21T11:12:32;23.10;54.50
34640;DHT22;22600;48.186;11.526;2023-02-21T11:14:39;23.10;54.50
34640;DHT22;22600;48.186;11.526;2023-02-21T11:20:03;23.10;54.50
34640;DHT22;22600;48.186;11.526;2023-02-21T11:22:44;23.10;54.50
34640;DHT22;22600;48.186;11.526;2023-02-21T11:25:23;23.20;54.60
34640;DHT22;22600;48.186;11.526;2023-02-21T11:28:16;23.10;55.10
34640;DHT22;22600;48.186;11.526;2023-02-21T11:33:20;23.10;54.10
34640;DHT22;22600;48.186;11.526;2023-02-21T11:35:48;23.10;54.50
34640;DHT22;22600;48.186;11.526;2023-02-21T11:43:54;23.10;54.50
34640;DHT22;22600;48.186;11.526;2023-02-21T11:52:31;23.20;54.60
34640;DHT22;22600;48.186;11.526;2023-02-21T11:54:57;23.20;54.60
34640;DHT22;22600;48.186;11.526;2023-02-21T11:57:43;23.20;54.60
34640;DHT22;22600;48.186;11.526;2023-02-21T12:08:43;23.20;54.70
34640;DHT22;22600;48.186;11.526;2023-02-21T12:11:26;23.20;54.70
34640;DHT22;22600;48.186;11.526;2023-02-21T12:19:20;23.20;54.70
34640;DHT22;22600;48.186;11.526;2023-02-21T12:22:31;23.20;54.70
34640;DHT22;22600;48.186;11.526;2023-02-21T12:25:15;23.20;54.70
34640;DHT22;22600;48.186;11.526;2023-02-21T12:27:55;23.20;54.70
34640;DHT22;22600;48.186;11.526;2023-02-21T12:37:11;23.20;54.70
34640;DHT22;22600;48.186;11.526;2023-02-21T12:39:28;23.30;54.80
34640;DHT22;22600;48.186;11.526;2023-02-21T12:47:33;23.30;54.30
34640;DHT22;22600;48.186;11.526;2023-02-21T12:50:04;23.30;54.80
34640;DHT22;22600;48.186;11.526;2023-02-21T12:52:37;23.20;54.80
34640;DHT22;22600;48.186;11.526;2023-02-21T12:55:25;23.30;54.80
34640;DHT22;22600;48.186;11.526;2023-02-21T12:58:03;23.30;54.80
34640;DHT22;22600;48.186;11.526;2023-02-21T13:00:42;23.30;54.80
34640;DHT22;22600;48.186;11.526;2023-02-21T13:12:10;23.30;54.80
34640;DHT22;22600;48.186;11.526;2023-02-21T13:14:54;23.30;54.80
34640;DHT22;22600;48.186;11.526;2023-02-21T13:17:21;23.30;54.80
34640;DHT22;22600;48.186;11.526;2023-02-21T13:20:03;23.30;54.80
34640;DHT22;22600;48.186;11.526;2023-02-21T13:28:34;23.30;54.90
34640;DHT22;22600;48.186;11.526;2023-02-21T13:31:09;23.30;54.90
34640;DHT22;22600;48.186;11.526;2023-02-21T13:33:44;23.30;54.90
34640;DHT22;22600;48.186;11.526;2023-02-21T13:41:48;23.30;54.90
34640;DHT22;22600;48.186;11.526;2023-02-21T13:44:23;23.30;54.90
34640;DHT22;22600;48.186;11.526;2023-02-21T14:08:30;23.30;52.70
34640;DHT22;22600;48.186;11.526;2023-02-21T14:13:49;23.20;51.00
34640;DHT22;22600;48.186;11.526;2023-02-21T14:18:58;23.20;48.50
34640;DHT22;22600;48.186;11.526;2023-02-21T14:21:34;23.20;48.20
34640;DHT22;22600;48.186;11.526;2023-02-21T14:24:02;23.20;47.80
34640;DHT22;22600;48.186;11.526;2023-02-21T14:29:37;23.10;46.70
34640;DHT22;22600;48.186;11.526;2023-02-21T14:37:37;23.00;45.00
34640;DHT22;22600;48.186;11.526;2023-02-21T14:43:15;23.10;44.30
34640;DHT22;22600;48.186;11.526;2023-02-21T14:46:04;23.00;44.90
34640;DHT22;22600;48.186;11.526;2023-02-21T14:54:28;23.00;45.10
34640;DHT22;22600;48.186;11.526;2023-02-21T15:05:24;22.90;43.30
34640;DHT22;22600;48.186;11.526;2023-02-21T15:10:44;22.90;42.90
34640;DHT22;22600;48.186;11.526;2023-02-21T15:15:59;22.90;42.70
34640;DHT22;22600;48.186;11.526;2023-02-21T15:18:32;22.90;43.20
34640;DHT22;22600;48.186;11.526;2023-02-21T15:23:42;22.80;43.50
34640;DHT22;22600;48.186;11.526;2023-02-21T15:26:20;22.80;43.00
34640;DHT22;22600;48.186;11.526;2023-02-21T15:29:06;22.80;43.00
34640;DHT22;22600;48.186;11.526;2023-02-21T15:31:53;22.80;42.30
34640;DHT22;22600;48.186;11.526;2023-02-21T15:34:33;22.70;42.00
34640;DHT22;22600;48.186;11.526;2023-02-21T15:37:24;22.70;42.50
34640;DHT22;22600;48.186;11.526;2023-02-21T15:39:53;22.80;42.70
34640;DHT22;22600;48.186;11.526;2023-02-21T15:42:20;22.70;41.90
34640;DHT22;22600;48.186;11.526;2023-02-21T15:44:54;22.80;42.40
34640;DHT22;22600;48.186;11.526;2023-02-21T15:47:22;22.70;42.70
34640;DHT22;22600;48.186;11.526;2023-02-21T15:50:09;22.90;42.90
34640;DHT22;22600;48.186;11.526;2023-02-21T15:52:41;22.80;43.10
34640;DHT22;22600;48.186;11.526;2023-02-21T15:57:39;22.80;43.50
34640;DHT22;22600;48.186;11.526;2023-02-21T16:02:49;22.70;42.70
34640;DHT22;22600;48.186;11.526;2023-02-21T16:05:29;22.70;43.30
34640;DHT22;22600;48.186;11.526;2023-02-21T16:08:02;22.80;43.00
34640;DHT22;22600;48.186;11.526;2023-02-21T16:10:29;22.60;43.10
34640;DHT22;22600;48.186;11.526;2023-02-21T16:13:01;22.70;43.30
34640;DHT22;22600;48.186;11.526;2023-02-21T16:15:32;22.70;43.50
34640;DHT22;22600;48.186;11.526;2023-02-21T16:18:04;22.80;43.50
34640;DHT22;22600;48.186;11.526;2023-02-21T16:20:37;22.70;43.60
34640;DHT22;22600;48.186;11.526;2023-02-21T16:25:56;22.70;44.10
34640;DHT22;22600;48.186;11.526;2023-02-21T16:28:22;22.70;44.20
34640;DHT22;22600;48.186;11.526;2023-02-21T16:30:48;22.70;44.20
34640;DHT22;22600;48.186;11.526;2023-02-21T16:33:14;22.60;44.40
34640;DHT22;22600;48.186;11.526;2023-02-21T16:35:40;22.60;43.30
34640;DHT22;22600;48.186;11.526;2023-02-21T16:38:06;22.60;43.80
34640;DHT22;22600;48.186;11.526;2023-02-21T16:40:35;22.60;44.40
34640;DHT22;22600;48.186;11.526;2023-02-21T16:43:02;22.60;44.30
34640;DHT22;22600;48.186;11.526;2023-02-21T16:45:29;22.60;44.90
34640;DHT22;22600;48.186;11.526;2023-02-21T16:47:57;22.60;44.10
34640;DHT22;22600;48.186;11.526;2023-02-21T16:50:47;22.60;43.60
34640;DHT22;22600;48.186;11.526;2023-02-21T16:53:14;22.60;43.30
34640;DHT22;22600;48.186;11.526;2023-02-21T16:55:40;22.60;43.70
34640;DHT22;22600;48.186;11.526;2023-02-21T16:58:28;22.60;43.60
34640;DHT22;22600;48.186;11.526;2023-02-21T17:00:56;22.50;42.60
34640;DHT22;22600;48.186;11.526;2023-02-21T17:03:22;22.60;43.10
34640;DHT22;22600;48.186;11.526;2023-02-21T17:05:50;22.50;43.30
34640;DHT22;22600;48.186;11.526;2023-02-21T17:08:16;22.50;43.40
34640;DHT22;22600;48.186;11.526;2023-02-21T17:10:42;22.50;44.00
34640;DHT22;22600;48.186;11.526;2023-02-21T17:13:08;22.50;43.80
34640;DHT22;22600;48.186;11.526;2023-02-21T17:15:33;22.50;44.30
34640;DHT22;22600;48.186;11.526;2023-02-21T17:17:59;22.50;44.40
34640;DHT22;22600;48.186;11.526;2023-02-21T17:20:26;22.40;44.20
34640;DHT22;22600;48.186;11.526;2023-02-21T17:22:52;22.50;44.70
34640;DHT22;22600;48.186;11.526;2023-02-21T17:25:19;22.40;44.10
34640;DHT22;22600;48.186;11.526;2023-02-21T17:27:45;22.50;44.20
34640;DHT22;22600;48.186;11.526;2023-02-21T17:30:11;22.50;44.50
34640;DHT22;22600;48.186;11.526;2023-02-21T17:32:37;22.40;44.10
34640;DHT22;22600;48.186;11.526;2023-02-21T17:35:04;22.40;43.30
34640;DHT22;22600;48.186;11.526;2023-02-21T17:37:29;22.40;43.10
34640;DHT22;22600;48.186;11.526;2023-02-21T17:39:55;22.40;42.90
34640;DHT22;22600;48.186;11.526;2023-02-21T17:42:22;22.40;42.80
34640;DHT22;22600;48.186;11.526;2023-02-21T17:44:48;22.40;42.80
34640;DHT22;22600;48.186;11.526;2023-02-21T17:47:18;22.50;42.80
34640;DHT22;22600;48.186;11.526;2023-02-21T17:49:46;22.50;42.60
34640;DHT22;22600;48.186;11.526;2023-02-21T17:52:12;22.50;42.60
34640;DHT22;22600;48.186;11.526;2023-02-21T17:54:40;22.50;42.30
34640;DHT22;22600;48.186;11.526;2023-02-21T17:57:06;22.50;42.80
34640;DHT22;22600;48.186;11.526;2023-02-21T17:59:33;22.50;42.90
34640;DHT22;22600;48.186;11.526;2023-02-21T18:02:00;22.50;43.20
34640;DHT22;22600;48.186;11.526;2023-02-21T18:04:25;22.40;43.10
34640;DHT22;22600;48.186;11.526;2023-02-21T18:06:51;22.40;43.30
34640;DHT22;22600;48.186;11.526;2023-02-21T18:09:16;22.50;43.60
34640;DHT22;22600;48.186;11.526;2023-02-21T18:11:50;22.40;43.60
34640;DHT22;22600;48.186;11.526;2023-02-21T18:14:17;22.50;43.50
34640;DHT22;22600;48.186;11.526;2023-02-21T18:16:43;22.50;44.00
34640;DHT22;22600;48.186;11.526;2023-02-21T18:19:08;22.50;44.10
34640;DHT22;22600;48.186;11.526;2023-02-21T18:21:34;22.50;44.30
34640;DHT22;22600;48.186;11.526;2023-02-21T18:24:01;22.50;44.00
34640;DHT22;22600;48.186;11.526;2023-02-21T18:26:26;22.50;44.50
34640;DHT22;22600;48.186;11.526;2023-02-21T18:28:52;22.50;44.60
34640;DHT22;22600;48.186;11.526;2023-02-21T18:31:18;22.50;44.30
34640;DHT22;22600;48.186;11.526;2023-02-21T18:33:44;22.40;44.80
34640;DHT22;22600;48.186;11.526;2023-02-21T18:36:10;22.50;44.90
34640;DHT22;22600;48.186;11.526;2023-02-21T18:38:40;22.50;45.00
34640;DHT22;22600;48.186;11.526;2023-02-21T18:41:19;22.60;44.80
34640;DHT22;22600;48.186;11.526;2023-02-21T18:43:47;22.50;44.80
34640;DHT22;22600;48.186;11.526;2023-02-21T18:46:15;22.50;45.30
34640;DHT22;22600;48.186;11.526;2023-02-21T18:48:44;22.50;45.30
34640;DHT22;22600;48.186;11.526;2023-02-21T18:51:11;22.60;45.50
34640;DHT22;22600;48.186;11.526;2023-02-21T18:53:37;22.60;45.70
34640;DHT22;22600;48.186;11.526;2023-02-21T18:56:07;22.60;45.80
34640;DHT22;22600;48.186;11.526;2023-02-21T18:58:32;22.60;45.90